Time;durP1;ratioP1;P1;durP2;ratioP2;P2;SDS_P1;SDS_P2;PMS_P1;PMS_P2;Temp;Humidity;BMP_temperature;BMP_pressure;BME280_temperature;BME280_humidity;BME280_pressure;Samples;Min_cycle;Max_cycle;Signal;HPM_P1;HPM_P2
2021/12/05 00:22:41;;;;;;;12.17;8.83;;;6.30;74.00;;;;;;4980756;28;20027;-82
2021/12/05 00:24:51;;;;;;;15.27;10.27;;;6.20;73.90;;;;;;4978178;28;20045;-82
2021/12/05 00:27:21;;;;;;;13.60;9.83;;;6.10;74.00;;;;;;4975955;28;20035;-82
2021/12/05 00:33:22;;;;;;;18.23;11.97;;;6.10;74.00;;;;;;4983277;28;20162;-82
2021/12/05 00:46:14;;;;;;;11.60;8.10;;;5.90;75.00;;;;;;4987436;28;20394;-82
2021/12/05 01:15:14;;;;;;;9.63;6.47;;;6.10;74.70;;;;;;5001567;28;20502;-82
2021/12/05 01:18:01;;;;;;;6.97;5.63;;;6.10;74.80;;;;;;4990463;28;22071;-82
2021/12/05 01:20:34;;;;;;;8.67;5.90;;;6.10;74.90;;;;;;4992971;28;20188;-82
2021/12/05 01:23:07;;;;;;;8.50;7.00;;;6.20;74.80;;;;;;4998922;28;20097;-82
2021/12/05 01:30:46;;;;;;;16.27;12.47;;;6.20;74.70;;;;;;4985396;28;20497;-82
2021/12/05 01:33:41;;;;;;;17.57;12.63;;;6.20;74.80;;;;;;4980856;28;20506;-82
2021/12/05 01:39:28;;;;;;;18.27;15.03;;;6.10;74.90;;;;;;4988128;28;20044;-82
2021/12/05 02:42:38;;;;;;;12.43;9.77;;;6.00;75.40;;;;;;4980690;28;20030;-82
2021/12/05 02:45:09;;;;;;;12.70;10.10;;;6.00;75.30;;;;;;4962201;28;20034;-82
2021/12/05 02:47:35;;;;;;;9.63;7.73;;;6.00;75.20;;;;;;4972930;28;20037;-82
2021/12/05 02:50:06;;;;;;;10.47;6.90;;;6.00;75.90;;;;;;4968056;28;20725;-83
2021/12/05 02:52:38;;;;;;;8.63;6.70;;;6.20;75.50;;;;;;4989981;28;20035;-82
2021/12/05 02:55:16;;;;;;;7.10;6.03;;;6.20;74.80;;;;;;4971153;28;20042;-82
2021/12/05 03:00:33;;;;;;;8.57;5.67;;;6.20;74.80;;;;;;4987442;28;20081;-82
2021/12/05 03:02:59;;;;;;;9.90;5.60;;;6.20;74.90;;;;;;4961507;28;20042;-82
2021/12/05 03:05:25;;;;;;;6.83;4.87;;;6.10;74.80;;;;;;4964944;28;20096;-82
2021/12/05 03:08:00;;;;;;;8.07;4.00;;;6.10;74.80;;;;;;4971045;28;20119;-82
2021/12/05 03:10:27;;;;;;;6.07;4.60;;;6.20;75.00;;;;;;4985817;28;20108;-82
2021/12/05 03:12:53;;;;;;;7.97;4.10;;;6.20;74.90;;;;;;5006200;28;20045;-83
2021/12/05 03:15:19;;;;;;;5.67;4.40;;;6.20;74.80;;;;;;4965592;28;20022;-82
2021/12/05 03:17:45;;;;;;;8.23;5.17;;;6.30;74.60;;;;;;4965832;28;20124;-82
2021/12/05 03:20:13;;;;;;;6.83;4.90;;;6.20;74.40;;;;;;4969496;28;20494;-82
2021/12/05 03:22:39;;;;;;;7.27;5.23;;;6.20;74.50;;;;;;4977782;28;20136;-82
2021/12/05 03:25:06;;;;;;;5.90;4.37;;;6.20;74.60;;;;;;4965224;28;20550;-82
2021/12/05 03:27:34;;;;;;;5.23;3.97;;;6.20;74.60;;;;;;4971673;28;20374;-82
2021/12/05 03:30:00;;;;;;;5.43;4.10;;;6.10;74.50;;;;;;4984981;28;20101;-82
2021/12/05 03:32:26;;;;;;;6.43;4.47;;;6.10;74.60;;;;;;4987082;28;20030;-82
2021/12/05 03:34:51;;;;;;;7.27;4.43;;;6.10;74.70;;;;;;4990398;28;20105;-82
2021/12/05 03:37:17;;;;;;;5.70;4.53;;;6.10;74.70;;;;;;4987220;28;20058;-82
2021/12/05 03:39:43;;;;;;;5.03;3.80;;;6.10;74.70;;;;;;4967650;28;20054;-82
2021/12/05 03:42:09;;;;;;;4.07;3.10;;;6.20;74.70;;;;;;4964329;28;20053;-82
2021/12/05 03:44:37;;;;;;;5.37;3.20;;;6.20;74.50;;;;;;4967646;28;20086;-82
2021/12/05 03:47:06;;;;;;;4.20;2.93;;;6.10;74.60;;;;;;4970867;28;20044;-82
2021/12/05 03:49:33;;;;;;;3.73;2.57;;;6.10;74.60;;;;;;4995796;28;20038;-82
2021/12/05 03:52:07;;;;;;;3.40;2.20;;;6.10;74.30;;;;;;4990107;28;20046;-82
2021/12/05 03:54:33;;;;;;;3.07;2.47;;;6.00;74.20;;;;;;4971328;28;20055;-82
2021/12/05 03:57:00;;;;;;;3.97;2.47;;;6.00;74.40;;;;;;4961118;28;20026;-82
2021/12/05 03:59:28;;;;;;;4.03;2.30;;;5.90;74.50;;;;;;4968032;28;20035;-81
2021/12/05 04:01:55;;;;;;;3.80;1.90;;;5.90;74.60;;;;;;4983153;28;20030;-82
2021/12/05 04:04:22;;;;;;;4.03;2.70;;;5.90;74.70;;;;;;4971492;28;20045;-82
2021/12/05 04:06:48;;;;;;;3.47;2.50;;;5.90;74.70;;;;;;4973996;28;20041;-82
2021/12/05 04:09:16;;;;;;;3.37;1.53;;;5.80;74.50;;;;;;4984168;28;20117;-82
2021/12/05 04:11:55;;;;;;;1.83;1.60;;;5.90;75.10;;;;;;4970141;28;20031;-82
2021/12/05 04:14:21;;;;;;;3.30;1.50;;;6.00;74.80;;;;;;4974400;28;20053;-82
2021/12/05 04:16:47;;;;;;;3.27;1.70;;;6.00;74.20;;;;;;4977368;28;20113;-82
2021/12/05 04:19:13;;;;;;;4.17;1.90;;;5.90;74.80;;;;;;4968737;28;20177;-82
2021/12/05 04:21:39;;;;;;;2.00;1.20;;;5.90;74.20;;;;;;4987531;28;20071;-82
2021/12/05 04:24:07;;;;;;;1.73;1.10;;;5.90;75.00;;;;;;4990365;28;20043;-82
2021/12/05 04:26:34;;;;;;;3.30;1.27;;;5.80;74.20;;;;;;4968952;28;20084;-82
2021/12/05 04:29:00;;;;;;;3.30;1.83;;;5.80;74.70;;;;;;4970966;28;20185;-82
2021/12/05 04:31:26;;;;;;;1.77;0.90;;;5.90;74.90;;;;;;4968051;28;20038;-82
2021/12/05 04:33:52;;;;;;;1.13;0.73;;;5.90;74.30;;;;;;4986855;28;20394;-82
2021/12/05 04:36:18;;;;;;;2.10;1.40;;;6.00;74.00;;;;;;4986686;28;20031;-82
2021/12/05 04:38:45;;;;;;;3.00;1.60;;;6.00;73.70;;;;;;4986934;28;20036;-82
2021/12/05 04:41:11;;;;;;;2.77;1.47;;;6.00;73.60;;;;;;4983446;28;21740;-82
2021/12/05 04:43:38;;;;;;;2.40;1.50;;;5.90;73.70;;;;;;4984949;28;20074;-82
2021/12/05 04:46:14;;;;;;;2.20;1.13;;;5.90;73.80;;;;;;4966163;28;20038;-82
2021/12/05 04:48:42;;;;;;;2.27;0.80;;;5.90;73.80;;;;;;4980082;28;20030;-82
2021/12/05 04:51:08;;;;;;;2.93;0.50;;;5.80;73.70;;;;;;4965201;28;20034;-82
2021/12/05 04:53:34;;;;;;;1.53;0.57;;;5.80;73.60;;;;;;4967278;28;20081;-82
2021/12/05 04:56:00;;;;;;;1.47;0.63;;;5.80;73.50;;;;;;4987010;28;21001;-82
2021/12/05 04:58:27;;;;;;;2.27;0.50;;;5.80;73.40;;;;;;4974742;28;20083;-82
2021/12/05 05:00:57;;;;;;;5.13;0.90;;;5.80;73.40;;;;;;4994295;28;20027;-82
2021/12/05 05:03:26;;;;;;;1.77;0.40;;;5.90;72.40;;;;;;4987699;28;20022;-82
2021/12/05 05:06:01;;;;;;;1.63;0.40;;;5.90;71.80;;;;;;4973184;28;20587;-82
2021/12/05 05:08:30;;;;;;;1.30;0.43;;;6.00;71.50;;;;;;4975423;28;20026;-82
2021/12/05 05:10:57;;;;;;;1.73;0.53;;;6.00;70.70;;;;;;4990761;28;20118;-82
2021/12/05 05:13:22;;;;;;;2.23;0.40;;;6.00;69.70;;;;;;4981643;28;20026;-82
2021/12/05 05:15:48;;;;;;;0.83;0.57;;;6.10;69.10;;;;;;4963475;28;20080;-82
2021/12/05 05:18:14;;;;;;;2.13;1.03;;;6.10;68.90;;;;;;4989423;28;20101;-82
2021/12/05 05:20:51;;;;;;;2.10;0.70;;;6.00;68.90;;;;;;4972393;28;20038;-82
2021/12/05 05:42:11;;;;;;;3.37;1.50;;;5.90;70.90;;;;;;4985376;28;20046;-82
2021/12/05 05:47:11;;;;;;;5.90;2.00;;;5.90;71.30;;;;;;4985702;28;21628;-82
2021/12/05 05:52:10;;;;;;;17.10;12.48;;;5.90;71.60;;;;;;4984489;28;20072;-82
2021/12/05 05:54:35;;;;;;;14.67;6.63;;;5.90;71.70;;;;;;4996337;28;20121;-82
2021/12/05 05:57:13;;;;;;;51.57;35.57;;;5.90;71.50;;;;;;4992100;28;20114;-82
2021/12/05 05:59:47;;;;;;;14.80;9.33;;;5.90;71.50;;;;;;4974151;28;20034;-82
2021/12/05 06:04:39;;;;;;;7.23;3.33;;;6.00;71.10;;;;;;4992874;28;20026;-82
2021/12/05 06:07:05;;;;;;;72.83;35.90;;;6.00;71.20;;;;;;4975580;28;20038;-82
2021/12/05 06:09:30;;;;;;;43.80;23.30;;;6.20;71.00;;;;;;4986499;28;20030;-82
2021/12/05 06:11:56;;;;;;;28.60;17.50;;;6.20;70.60;;;;;;4992397;28;20054;-82
2021/12/05 06:14:23;;;;;;;8.17;3.30;;;6.10;70.60;;;;;;4977698;28;20029;-83
2021/12/05 06:16:49;;;;;;;4.00;2.77;;;6.10;70.70;;;;;;4970135;28;20030;-82
2021/12/05 06:19:15;;;;;;;4.20;2.60;;;6.00;71.00;;;;;;4983750;28;20033;-82
2021/12/05 06:21:40;;;;;;;1.73;1.00;;;6.00;71.30;;;;;;4973075;28;20046;-82
2021/12/05 06:24:06;;;;;;;3.07;1.30;;;6.00;71.30;;;;;;4993149;28;20057;-82
2021/12/05 06:26:35;;;;;;;2.90;1.33;;;6.10;71.40;;;;;;4973649;28;20041;-82
2021/12/05 06:29:20;;;;;;;3.90;1.70;;;6.10;71.20;;;;;;4965724;28;20117;-82
2021/12/05 06:37:31;;;;;;;9.83;5.67;;;6.00;71.30;;;;;;4982856;28;20041;-82
2021/12/05 06:47:49;;;;;;;4.67;2.90;;;6.10;71.50;;;;;;4982239;28;21390;-82
2021/12/05 06:50:15;;;;;;;5.53;4.00;;;6.00;71.70;;;;;;4989268;28;20029;-82
2021/12/05 06:52:42;;;;;;;5.87;3.30;;;6.00;71.90;;;;;;4972021;28;20140;-82
2021/12/05 06:55:09;;;;;;;9.33;4.67;;;6.00;72.10;;;;;;4972507;28;20510;-82
2021/12/05 06:57:34;;;;;;;7.90;4.10;;;6.00;72.20;;;;;;4969914;28;20077;-82
2021/12/05 07:00:04;;;;;;;5.20;3.90;;;6.00;72.20;;;;;;4978617;28;20469;-82
2021/12/05 07:02:30;;;;;;;6.90;4.53;;;5.90;72.40;;;;;;4996903;28;20109;-82
2021/12/05 07:07:24;;;;;;;7.03;4.53;;;5.90;72.60;;;;;;4983602;28;20082;-82
2021/12/05 07:09:52;;;;;;;5.93;4.97;;;5.90;72.70;;;;;;4982503;28;20033;-83
2021/12/05 07:15:08;;;;;;;6.40;4.53;;;6.00;73.00;;;;;;4990034;28;20037;-82
2021/12/05 07:23:07;;;;;;;10.57;5.60;;;6.00;73.00;;;;;;4988471;28;20081;-82
2021/12/05 07:25:45;;;;;;;11.00;7.10;;;5.90;73.10;;;;;;4990469;28;20074;-82
2021/12/05 07:42:03;;;;;;;20.10;13.50;;;6.00;73.50;;;;;;4995529;28;20046;-82
2021/12/05 07:44:29;;;;;;;19.90;13.50;;;6.00;73.50;;;;;;4982034;28;20018;-82
2021/12/05 07:46:56;;;;;;;12.17;8.03;;;6.00;73.60;;;;;;4964120;28;20037;-82
2021/12/05 07:49:21;;;;;;;10.07;7.40;;;6.00;73.60;;;;;;4978928;28;20051;-82
2021/12/05 07:51:49;;;;;;;11.90;8.97;;;6.00;73.60;;;;;;4987282;28;20061;-82
2021/12/05 07:57:05;;;;;;;25.10;17.83;;;6.00;73.90;;;;;;4980796;28;20494;-82
2021/12/05 08:16:00;;;;;;;11.53;6.83;;;6.00;74.00;;;;;;4982959;28;20501;-82
2021/12/05 08:18:27;;;;;;;20.20;12.03;;;6.00;74.00;;;;;;4964033;28;20022;-82
2021/12/05 08:20:54;;;;;;;21.67;10.50;;;6.00;74.00;;;;;;4980206;28;20129;-82
2021/12/05 08:23:22;;;;;;;12.90;8.57;;;6.10;74.10;;;;;;4978640;28;20382;-82
2021/12/05 08:25:55;;;;;;;14.10;8.87;;;6.10;74.10;;;;;;4979273;28;20481;-82
2021/12/05 08:31:15;;;;;;;14.43;9.93;;;6.10;74.10;;;;;;4990838;28;20557;-82
2021/12/05 08:36:45;;;;;;;7.20;3.47;;;6.00;74.20;;;;;;4986165;28;20014;-82
2021/12/05 10:03:02;;;;;;;12.10;7.07;;;6.00;73.70;;;;;;4985592;28;20038;-82
2021/12/05 10:13:31;;;;;;;15.27;11.23;;;5.90;73.90;;;;;;4977789;28;20038;-82
2021/12/05 10:19:07;;;;;;;12.57;6.30;;;5.90;73.60;;;;;;4981823;28;20084;-82
2021/12/05 10:38:15;;;;;;;8.53;3.23;;;5.90;73.50;;;;;;4997315;28;20035;-82
2021/12/05 10:41:06;;;;;;;12.10;5.50;;;6.00;73.40;;;;;;4964824;28;20027;-82
2021/12/05 10:43:33;;;;;;;8.97;5.40;;;6.00;73.10;;;;;;4983154;28;20122;-82
2021/12/05 10:46:08;;;;;;;8.33;5.30;;;6.00;73.10;;;;;;4964961;28;20027;-82
2021/12/05 10:48:42;;;;;;;8.50;4.37;;;5.80;73.00;;;;;;4983490;28;20045;-82
2021/12/05 10:51:39;;;;;;;8.63;4.03;;;5.80;73.40;;;;;;4990335;28;20054;-82
2021/12/05 10:54:08;;;;;;;8.33;4.00;;;5.80;73.60;;;;;;4964538;28;20042;-82
2021/12/05 10:57:00;;;;;;;8.53;4.43;;;5.70;73.60;;;;;;4978246;28;20042;-82
2021/12/05 10:59:36;;;;;;;9.27;3.70;;;5.80;73.70;;;;;;4976203;28;20040;-82
2021/12/05 11:02:06;;;;;;;5.77;2.83;;;5.80;73.80;;;;;;4968134;28;20045;-82
2021/12/05 11:04:38;;;;;;;9.50;2.30;;;5.90;73.80;;;;;;4983149;28;20511;-82
2021/12/05 11:07:16;;;;;;;6.05;2.38;;;5.90;73.60;;;;;;4973482;28;20068;-82
2021/12/05 11:09:44;;;;;;;5.63;1.70;;;5.90;73.30;;;;;;4965320;28;20520;-82
2021/12/05 11:12:21;;;;;;;8.97;2.40;;;5.80;73.30;;;;;;4991685;28;20030;-82
2021/12/05 11:14:58;;;;;;;4.13;1.40;;;5.90;73.30;;;;;;4967676;28;20057;-81
2021/12/05 11:17:27;;;;;;;5.10;1.77;;;5.80;73.30;;;;;;4988865;28;20469;-81
2021/12/05 11:19:54;;;;;;;3.53;1.30;;;5.90;72.90;;;;;;4978471;28;20458;-82
2021/12/05 11:22:23;;;;;;;4.77;1.60;;;5.80;72.90;;;;;;5002485;28;20033;-82
2021/12/05 11:25:15;;;;;;;6.23;2.13;;;5.80;72.90;;;;;;4977656;28;20507;-82
2021/12/05 11:27:49;;;;;;;7.47;2.40;;;5.80;72.60;;;;;;4981115;28;20030;-81
2021/12/05 11:30:31;;;;;;;7.43;3.07;;;5.90;72.80;;;;;;4982518;28;20077;-81
2021/12/05 11:33:07;;;;;;;7.00;3.43;;;5.80;72.70;;;;;;4969445;28;20426;-81
2021/12/05 11:35:33;;;;;;;7.37;3.57;;;5.90;72.80;;;;;;4958153;28;20046;-81
2021/12/05 11:38:09;;;;;;;9.00;4.07;;;5.90;72.70;;;;;;4969634;28;20046;-81
2021/12/05 11:40:54;;;;;;;9.90;4.20;;;5.80;72.60;;;;;;4990193;28;20022;-82
2021/12/05 11:43:25;;;;;;;5.80;3.37;;;5.80;73.00;;;;;;4985669;28;20021;-82
2021/12/05 11:46:11;;;;;;;9.60;4.23;;;5.80;73.00;;;;;;4974683;28;20470;-81
2021/12/05 11:49:10;;;;;;;12.57;2.63;;;5.80;72.90;;;;;;4990378;28;20022;-81
2021/12/05 11:51:44;;;;;;;6.00;2.57;;;5.80;72.90;;;;;;4964176;28;20487;-81
2021/12/05 11:54:23;;;;;;;12.10;3.80;;;5.90;73.00;;;;;;4987502;28;20042;-81
2021/12/05 11:56:58;;;;;;;6.17;3.17;;;5.90;72.90;;;;;;4979012;28;20034;-81
2021/12/05 11:59:41;;;;;;;5.47;2.47;;;5.90;72.90;;;;;;4966581;28;20042;-81
2021/12/05 12:02:09;;;;;;;8.52;3.53;;;6.00;72.80;;;;;;4981036;28;20023;-81
2021/12/05 12:04:44;;;;;;;3.70;2.77;;;6.10;72.80;;;;;;4968941;28;20063;-81
2021/12/05 12:07:34;;;;;;;5.50;2.90;;;6.10;72.60;;;;;;4962428;28;20031;-81
2021/12/05 12:10:24;;;;;;;7.83;2.80;;;6.10;72.50;;;;;;4968116;28;20273;-82
2021/12/05 12:12:57;;;;;;;6.33;2.33;;;6.00;72.40;;;;;;4965800;28;20049;-81
2021/12/05 12:15:25;;;;;;;6.40;2.10;;;6.00;72.70;;;;;;4979793;28;20046;-81
2021/12/05 12:17:55;;;;;;;4.30;1.80;;;5.90;72.60;;;;;;4971774;28;20026;-81
2021/12/05 12:20:24;;;;;;;4.30;1.90;;;5.90;72.70;;;;;;4993213;28;20017;-81
2021/12/05 12:22:53;;;;;;;4.60;1.53;;;5.90;72.80;;;;;;4972321;28;20049;-82
2021/12/05 12:25:23;;;;;;;7.17;1.33;;;5.90;72.80;;;;;;4965817;28;20035;-81
2021/12/05 12:27:50;;;;;;;5.57;2.33;;;5.90;72.80;;;;;;4979413;28;20474;-81
2021/12/05 12:30:24;;;;;;;13.27;7.00;;;5.90;72.80;;;;;;4993905;28;20029;-81
2021/12/05 12:32:53;;;;;;;12.97;6.33;;;6.00;73.00;;;;;;4966478;28;20042;-81
2021/12/05 12:35:25;;;;;;;7.40;2.83;;;6.00;72.80;;;;;;4972400;28;20023;-82
2021/12/05 12:38:02;;;;;;;8.33;3.80;;;5.90;72.70;;;;;;4963937;28;20050;-82
2021/12/05 12:40:32;;;;;;;8.67;5.17;;;5.90;72.90;;;;;;4995497;28;20022;-82
2021/12/05 12:42:58;;;;;;;6.60;4.23;;;5.90;73.10;;;;;;4962128;28;20031;-81
2021/12/05 12:45:24;;;;;;;14.50;3.17;;;5.90;73.00;;;;;;4962816;28;20442;-81
2021/12/05 12:47:58;;;;;;;5.30;3.73;;;5.90;73.10;;;;;;4968781;28;20395;-81
2021/12/05 12:50:34;;;;;;;9.13;5.07;;;6.00;72.90;;;;;;4969527;28;20031;-82
2021/12/05 12:53:13;;;;;;;9.53;5.73;;;6.00;72.80;;;;;;4969065;28;20035;-82
2021/12/05 12:55:50;;;;;;;9.47;4.47;;;6.00;72.60;;;;;;4968102;28;20093;-81
2021/12/05 12:58:35;;;;;;;6.87;4.10;;;6.00;72.70;;;;;;4963290;28;20030;-81
2021/12/05 13:01:18;;;;;;;64.83;27.17;;;6.10;72.50;;;;;;4964054;28;20050;-82
2021/12/05 13:12:31;;;;;;;40.42;26.33;;;6.10;72.40;;;;;;4993284;28;20035;-82
2021/12/05 13:15:08;;;;;;;14.27;10.52;;;6.10;72.50;;;;;;4978332;28;20850;-81
2021/12/05 13:17:42;;;;;;;12.83;8.07;;;6.10;72.50;;;;;;4974321;28;20422;-82
2021/12/05 13:20:10;;;;;;;13.53;9.83;;;6.10;72.50;;;;;;4969161;28;20015;-82
2021/12/05 13:23:10;;;;;;;18.90;12.03;;;6.10;72.60;;;;;;4981887;28;20027;-82
2021/12/05 13:25:57;;;;;;;54.77;21.77;;;6.00;72.80;;;;;;4980445;28;20034;-82
2021/12/05 13:29:10;;;;;;;50.37;16.73;;;6.00;72.90;;;;;;4990531;28;20109;-82
2021/12/05 13:31:39;;;;;;;41.35;15.88;;;6.10;72.80;;;;;;4951068;28;20035;-82
2021/12/05 13:34:42;;;;;;;22.30;9.73;;;6.10;72.70;;;;;;4972339;28;20113;-82
2021/12/05 13:37:13;;;;;;;15.80;7.23;;;6.10;72.80;;;;;;4972693;28;20076;-81
2021/12/05 13:39:52;;;;;;;14.00;7.47;;;6.00;72.70;;;;;;4982208;28;20023;-82
2021/12/05 13:42:44;;;;;;;11.53;6.57;;;6.00;72.90;;;;;;4973368;28;20026;-82
2021/12/05 13:45:27;;;;;;;10.95;6.38;;;6.00;72.90;;;;;;4967045;28;20042;-82
2021/12/05 13:47:52;;;;;;;17.43;10.00;;;6.00;73.00;;;;;;4962725;28;20066;-82
2021/12/05 13:50:21;;;;;;;11.43;5.77;;;6.00;73.00;;;;;;4987718;28;20771;-82
2021/12/05 13:52:48;;;;;;;11.70;7.97;;;6.00;73.00;;;;;;4969084;28;20084;-82
2021/12/05 13:55:36;;;;;;;8.67;4.80;;;6.00;72.90;;;;;;4991075;28;20042;-82
2021/12/05 13:58:34;;;;;;;7.37;3.40;;;6.00;73.00;;;;;;4959823;28;20027;-82
2021/12/05 14:01:22;;;;;;;5.93;3.23;;;6.00;73.10;;;;;;4963877;28;20634;-82
2021/12/05 14:03:54;;;;;;;6.93;3.27;;;6.00;72.90;;;;;;4973882;28;20022;-82
2021/12/05 14:06:22;;;;;;;6.73;5.10;;;6.00;72.80;;;;;;4966158;28;20134;-81
2021/12/05 14:08:48;;;;;;;7.73;4.67;;;5.90;73.00;;;;;;4960045;28;20146;-82
2021/12/05 14:11:15;;;;;;;11.33;4.57;;;5.90;73.00;;;;;;4964629;28;20466;-82
2021/12/05 14:13:40;;;;;;;9.60;5.00;;;6.00;73.20;;;;;;4993120;28;20027;-82
2021/12/05 14:16:06;;;;;;;8.50;4.67;;;6.00;73.10;;;;;;4979144;28;20023;-82
2021/12/05 14:18:32;;;;;;;7.43;3.77;;;6.00;73.00;;;;;;4981285;28;20027;-82
2021/12/05 14:21:16;;;;;;;6.60;4.30;;;5.90;72.90;;;;;;4986966;28;20034;-81
2021/12/05 14:23:50;;;;;;;9.47;3.33;;;5.90;72.90;;;;;;4966572;28;20026;-82
2021/12/05 14:26:21;;;;;;;16.40;8.20;;;5.90;72.90;;;;;;4984325;28;20033;-81
2021/12/05 14:29:09;;;;;;;8.47;4.30;;;5.90;72.90;;;;;;4986171;28;20516;-82
2021/12/05 14:31:39;;;;;;;10.73;4.10;;;5.90;72.80;;;;;;4987942;28;20026;-82
2021/12/05 14:34:09;;;;;;;7.63;3.80;;;5.90;73.00;;;;;;4971455;28;20355;-82
2021/12/05 14:36:47;;;;;;;10.43;5.00;;;5.90;72.90;;;;;;4984648;28;20023;-82
2021/12/05 14:39:20;;;;;;;6.97;4.40;;;5.90;73.00;;;;;;4983672;28;20026;-81
2021/12/05 14:41:48;;;;;;;5.70;3.55;;;5.90;73.00;;;;;;4985468;28;20110;-82
2021/12/05 14:44:15;;;;;;;8.43;3.73;;;5.90;72.90;;;;;;4964699;28;20109;-82
2021/12/05 14:46:53;;;;;;;8.80;4.17;;;5.90;72.90;;;;;;4969149;28;20033;-82
2021/12/05 14:49:21;;;;;;;7.07;3.80;;;5.90;72.90;;;;;;4969296;28;20069;-81
2021/12/05 14:51:48;;;;;;;5.23;3.20;;;5.80;72.80;;;;;;4977001;28;20019;-81
2021/12/05 14:54:23;;;;;;;7.40;3.67;;;5.80;72.90;;;;;;4965970;28;20793;-82
2021/12/05 14:56:49;;;;;;;6.17;3.80;;;5.80;72.90;;;;;;4962318;28;20057;-81
2021/12/05 14:59:17;;;;;;;6.60;3.77;;;5.80;72.80;;;;;;4983636;28;20030;-81
2021/12/05 15:01:46;;;;;;;8.53;4.23;;;5.80;72.90;;;;;;4977070;28;20492;-81
2021/12/05 15:04:17;;;;;;;8.33;4.13;;;5.80;73.00;;;;;;4982679;28;20078;-81
2021/12/05 15:06:45;;;;;;;8.87;4.53;;;5.80;73.00;;;;;;4960336;28;20114;-81
2021/12/05 15:09:39;;;;;;;43.60;31.10;;;5.80;73.00;;;;;;4963862;28;20390;-83
2021/12/05 15:12:13;;;;;;;20.23;14.50;;;5.80;73.90;;;;;;4965629;28;20057;-82
2021/12/05 15:14:43;;;;;;;8.23;3.90;;;5.90;73.30;;;;;;4965177;28;20038;-82
2021/12/05 15:17:12;;;;;;;5.47;4.20;;;5.90;72.90;;;;;;4967292;28;20037;-81
2021/12/05 15:19:45;;;;;;;7.77;4.37;;;5.90;72.90;;;;;;4972764;28;20029;-82
2021/12/05 15:22:12;;;;;;;8.55;4.80;;;5.80;72.80;;;;;;4965564;28;20026;-82
2021/12/05 15:24:39;;;;;;;9.03;4.03;;;5.80;73.40;;;;;;4968408;28;20039;-82
2021/12/05 15:27:13;;;;;;;5.43;3.97;;;5.80;72.80;;;;;;4963479;28;20120;-82
2021/12/05 15:29:55;;;;;;;7.03;4.00;;;5.70;73.00;;;;;;4978381;28;20105;-82
2021/12/05 15:32:24;;;;;;;10.63;4.43;;;5.70;73.50;;;;;;4966265;28;20084;-81
2021/12/05 15:34:56;;;;;;;7.37;4.00;;;5.70;73.00;;;;;;4988188;28;20026;-82
2021/12/05 15:37:22;;;;;;;7.67;4.53;;;5.70;73.00;;;;;;4968623;28;20478;-82
2021/12/05 15:39:50;;;;;;;4.97;4.37;;;5.70;73.10;;;;;;4962482;28;20030;-82
2021/12/05 15:42:16;;;;;;;9.03;4.80;;;5.70;73.10;;;;;;4959120;28;20030;-82
2021/12/05 15:44:43;;;;;;;9.73;5.83;;;5.70;73.20;;;;;;4981475;28;20354;-82
2021/12/05 15:47:15;;;;;;;7.63;5.27;;;5.70;73.20;;;;;;4943356;28;20139;-82
2021/12/05 15:50:06;;;;;;;10.10;5.43;;;5.70;73.20;;;;;;4996009;28;20110;-82
2021/12/05 15:52:40;;;;;;;7.43;5.40;;;5.70;73.20;;;;;;4982854;28;20030;-82
2021/12/05 15:55:15;;;;;;;11.30;7.23;;;5.70;73.20;;;;;;4971060;28;20129;-82
2021/12/05 15:57:45;;;;;;;14.10;9.43;;;5.70;73.30;;;;;;4991041;28;20666;-82
2021/12/05 16:00:22;;;;;;;15.90;9.77;;;5.60;73.20;;;;;;4988165;28;20027;-82
2021/12/05 16:03:05;;;;;;;15.10;8.17;;;5.60;73.10;;;;;;4972229;28;20398;-82
2021/12/05 16:05:33;;;;;;;22.20;11.63;;;5.60;73.20;;;;;;4980854;28;20026;-81
2021/12/05 16:08:14;;;;;;;24.23;13.50;;;5.60;73.30;;;;;;4978328;28;20425;-81
2021/12/05 16:10:43;;;;;;;33.20;18.83;;;5.60;73.30;;;;;;4980766;28;20041;-81
2021/12/05 16:13:19;;;;;;;26.90;13.87;;;5.60;73.40;;;;;;4962351;28;20034;-81
2021/12/05 16:15:54;;;;;;;41.03;23.03;;;5.60;73.40;;;;;;4984749;28;20153;-82
2021/12/05 16:18:29;;;;;;;34.97;20.07;;;5.60;73.30;;;;;;4982061;28;20022;-82
2021/12/05 16:21:01;;;;;;;21.43;13.97;;;5.60;73.40;;;;;;4960421;28;20073;-81
2021/12/05 16:23:29;;;;;;;16.10;10.63;;;5.60;73.30;;;;;;4961098;28;20076;-81
2021/12/05 16:26:00;;;;;;;16.23;10.67;;;5.50;73.50;;;;;;4961740;28;20402;-81
2021/12/05 16:28:34;;;;;;;16.57;10.87;;;5.60;73.60;;;;;;4957180;28;20453;-82
2021/12/05 16:31:17;;;;;;;19.83;12.83;;;5.60;73.60;;;;;;4963067;28;20042;-82
2021/12/05 16:33:47;;;;;;;19.30;11.15;;;5.60;73.60;;;;;;4963347;28;20118;-82
2021/12/05 16:36:13;;;;;;;15.77;11.63;;;5.50;73.40;;;;;;4982649;28;20405;-82
2021/12/05 16:38:44;;;;;;;20.40;12.90;;;5.50;73.60;;;;;;4964260;28;20069;-82
2021/12/05 16:41:30;;;;;;;15.73;11.70;;;5.50;73.60;;;;;;4979438;28;20368;-82
2021/12/05 16:43:58;;;;;;;16.80;11.97;;;5.60;73.60;;;;;;4978855;28;20046;-81
2021/12/05 16:46:41;;;;;;;14.50;9.87;;;5.50;73.50;;;;;;4971294;28;20050;-81
2021/12/05 16:49:13;;;;;;;15.65;10.45;;;5.50;73.70;;;;;;4966801;28;20039;-82
2021/12/05 16:51:50;;;;;;;17.48;9.52;;;5.50;73.60;;;;;;4984669;28;20039;-81
2021/12/05 16:54:28;;;;;;;12.50;8.97;;;5.50;73.70;;;;;;4965966;28;20520;-81
2021/12/05 16:57:01;;;;;;;16.43;9.20;;;5.40;73.70;;;;;;4988350;28;20029;-82
2021/12/05 16:59:36;;;;;;;18.03;10.50;;;5.40;73.80;;;;;;4966397;28;20026;-82
2021/12/05 17:02:18;;;;;;;18.17;13.03;;;5.40;73.90;;;;;;4971651;28;20026;-82
2021/12/05 17:04:50;;;;;;;26.20;14.13;;;5.40;73.90;;;;;;4979339;28;20078;-82
2021/12/05 17:07:44;;;;;;;24.40;16.00;;;5.40;73.90;;;;;;4979506;28;20033;-82
2021/12/05 17:10:25;;;;;;;25.33;16.57;;;5.40;73.90;;;;;;4950841;28;20046;-81
2021/12/05 17:12:56;;;;;;;26.20;17.87;;;5.40;74.00;;;;;;4964312;28;20033;-82
2021/12/05 17:15:27;;;;;;;26.43;16.70;;;5.40;73.90;;;;;;4967458;28;20054;-81
2021/12/05 17:18:02;;;;;;;30.33;18.47;;;5.40;74.10;;;;;;4967518;28;20031;-81
2021/12/05 17:20:44;;;;;;;28.73;20.10;;;5.40;74.10;;;;;;4967472;28;20052;-81
2021/12/05 17:23:14;;;;;;;27.87;15.60;;;5.40;74.10;;;;;;4961537;28;20058;-82
2021/12/05 17:25:48;;;;;;;48.47;24.23;;;5.40;74.00;;;;;;4961211;28;20054;-81
2021/12/05 17:28:43;;;;;;;37.10;20.57;;;5.40;74.10;;;;;;4983672;28;20026;-82
2021/12/05 17:31:11;;;;;;;30.37;19.67;;;5.40;74.10;;;;;;4959730;28;20064;-81
2021/12/05 17:33:43;;;;;;;31.97;20.13;;;5.40;74.00;;;;;;4979152;28;20026;-81
2021/12/05 17:36:19;;;;;;;33.23;19.53;;;5.30;74.20;;;;;;4963159;28;20671;-81
2021/12/05 17:38:46;;;;;;;28.27;18.10;;;5.40;74.30;;;;;;4963818;28;20030;-82
2021/12/05 17:41:12;;;;;;;35.03;21.87;;;5.30;74.30;;;;;;4965099;28;20558;-81
2021/12/05 17:43:38;;;;;;;31.67;21.17;;;5.30;74.20;;;;;;4961316;28;20073;-82
2021/12/05 17:46:05;;;;;;;33.97;21.33;;;5.30;74.30;;;;;;4965781;28;20054;-81
2021/12/05 17:48:30;;;;;;;30.20;20.20;;;5.30;74.40;;;;;;4964825;28;20502;-81
2021/12/05 17:50:57;;;;;;;27.67;18.97;;;5.30;74.50;;;;;;4978583;28;20073;-81
2021/12/05 17:53:29;;;;;;;21.50;14.87;;;5.20;74.40;;;;;;4994605;28;20065;-82
2021/12/05 17:56:01;;;;;;;21.23;15.57;;;5.30;74.50;;;;;;4969634;28;20054;-81
2021/12/05 18:03:52;;;;;;;35.57;17.80;;;5.30;74.40;;;;;;4983652;28;20085;-82
2021/12/05 18:06:19;;;;;;;30.50;18.03;;;5.20;74.50;;;;;;4966748;28;20426;-82
2021/12/05 18:08:45;;;;;;;30.17;18.37;;;5.20;74.60;;;;;;4991046;28;20439;-81
2021/12/05 18:11:15;;;;;;;29.27;18.83;;;5.20;74.60;;;;;;4968641;28;20118;-81
2021/12/05 18:13:41;;;;;;;39.50;23.80;;;5.20;74.60;;;;;;4977175;28;20121;-82
2021/12/05 18:16:14;;;;;;;36.63;24.63;;;5.20;74.60;;;;;;4981443;28;20053;-82
2021/12/05 18:18:40;;;;;;;33.07;20.33;;;5.20;74.60;;;;;;4967455;28;20031;-82
2021/12/05 18:21:09;;;;;;;37.87;22.13;;;5.20;74.70;;;;;;4984074;28;20027;-82
2021/12/05 18:23:37;;;;;;;28.90;21.37;;;5.30;74.60;;;;;;4980254;28;20078;-82
2021/12/05 18:26:04;;;;;;;33.80;22.43;;;5.30;74.60;;;;;;4980094;28;20034;-82
2021/12/05 18:28:32;;;;;;;40.13;21.93;;;5.30;74.60;;;;;;4993414;28;20069;-82
2021/12/05 18:30:59;;;;;;;36.27;21.83;;;5.30;74.70;;;;;;4989955;28;20030;-82
2021/12/05 18:33:33;;;;;;;35.90;20.27;;;5.30;74.70;;;;;;4981681;28;20034;-82
2021/12/05 18:35:59;;;;;;;34.07;20.13;;;5.30;74.60;;;;;;4986348;28;20034;-82
2021/12/05 18:38:26;;;;;;;27.27;19.87;;;5.20;74.30;;;;;;4983465;28;20053;-82
2021/12/05 18:40:56;;;;;;;24.07;17.47;;;5.20;74.80;;;;;;4975316;28;20050;-82
2021/12/05 18:43:26;;;;;;;26.70;17.73;;;5.10;74.90;;;;;;5010552;28;20393;-82
2021/12/05 18:45:54;;;;;;;30.50;20.03;;;5.20;74.80;;;;;;4981033;28;20034;-82
2021/12/05 18:48:19;;;;;;;38.03;19.70;;;5.20;74.60;;;;;;4972659;28;20070;-82
2021/12/05 18:50:46;;;;;;;29.47;20.17;;;5.20;74.90;;;;;;4961931;28;20414;-82
2021/12/05 18:53:22;;;;;;;27.93;19.23;;;5.20;74.80;;;;;;4978054;28;20370;-83
2021/12/05 18:55:50;;;;;;;25.13;17.43;;;5.20;74.70;;;;;;4990669;28;20047;-82
2021/12/05 18:58:18;;;;;;;30.63;19.40;;;5.20;74.90;;;;;;4967526;28;20034;-82
2021/12/05 19:06:22;;;;;;;34.70;22.57;;;5.20;74.80;;;;;;4997620;28;20032;-82
2021/12/05 19:09:16;;;;;;;30.67;21.57;;;5.30;74.70;;;;;;4976256;28;20498;-82